Time;durP1;ratioP1;P1;durP2;ratioP2;P2;SDS_P1;SDS_P2;PMS_P1;PMS_P2;Temp;Humidity;BMP_temperature;BMP_pressure;BME280_temperature;BME280_humidity;BME280_pressure;Samples;Min_cycle;Max_cycle;Signal;HPM_P1;HPM_P2
2022/01/12 00:00:25;;;;;;;64.88;21.38;;;4.30;99.90;;;;;;4946240;28;20416;-71
2022/01/12 00:02:51;;;;;;;68.13;20.48;;;4.20;99.90;;;;;;4946146;29;20481;-71
2022/01/12 00:05:18;;;;;;;65.47;18.75;;;4.30;99.90;;;;;;4946185;28;20093;-71
2022/01/12 00:07:46;;;;;;;63.53;18.52;;;4.30;99.90;;;;;;4930525;29;20062;-70
2022/01/12 00:10:11;;;;;;;57.15;19.17;;;4.30;99.90;;;;;;4946070;28;20552;-71
2022/01/12 00:12:37;;;;;;;63.63;18.40;;;4.30;99.90;;;;;;4945270;28;20126;-71
2022/01/12 00:15:03;;;;;;;54.60;18.57;;;4.30;99.90;;;;;;4956825;28;20062;-71
2022/01/12 00:17:28;;;;;;;59.08;18.02;;;4.30;99.90;;;;;;4962911;28;20133;-71
2022/01/12 00:19:54;;;;;;;64.27;19.90;;;4.30;99.90;;;;;;4942543;28;20154;-71
2022/01/12 00:22:20;;;;;;;68.73;18.67;;;4.30;99.90;;;;;;4946702;28;20027;-71
2022/01/12 00:33:34;;;;;;;68.05;18.33;;;4.30;99.90;;;;;;4946083;28;20051;-71
2022/01/12 00:35:46;;;;;;;64.85;17.67;;;4.30;99.90;;;;;;4945874;28;20074;-71
2022/01/12 00:38:13;;;;;;;63.92;18.95;;;4.30;99.90;;;;;;4959511;28;20074;-71
2022/01/12 00:40:41;;;;;;;60.03;19.20;;;4.30;99.90;;;;;;4945601;28;20043;-71
2022/01/12 00:43:07;;;;;;;75.20;19.55;;;4.30;99.90;;;;;;4944138;28;20051;-71
2022/01/12 00:45:34;;;;;;;80.50;20.27;;;4.30;99.90;;;;;;4940772;28;20048;-71
2022/01/12 00:47:59;;;;;;;;;;;4.30;99.90;;;;;;4945089;28;20043;-71
2022/01/12 00:50:25;;;;;;;76.22;19.48;;;4.30;99.90;;;;;;4939357;29;20295;-71
2022/01/12 00:52:53;;;;;;;63.13;19.37;;;4.30;99.90;;;;;;4945759;29;20046;-71
2022/01/12 00:55:19;;;;;;;81.85;19.50;;;4.30;99.90;;;;;;4960369;23;20407;-69
2022/01/12 00:57:44;;;;;;;67.35;19.55;;;4.30;99.90;;;;;;4941753;28;20039;-68
2022/01/12 01:00:11;;;;;;;71.87;18.73;;;4.30;99.90;;;;;;4942778;28;20424;-68
2022/01/12 01:02:36;;;;;;;;;;;4.30;99.90;;;;;;4939551;28;20094;-74
2022/01/12 01:05:03;;;;;;;66.72;18.25;;;4.30;99.90;;;;;;4938676;28;19923;-69
2022/01/12 01:07:28;;;;;;;87.97;19.48;;;4.30;99.90;;;;;;4938624;28;20130;-68
2022/01/12 01:10:05;;;;;;;62.33;19.10;;;4.30;99.90;;;;;;4951996;28;20154;-67
2022/01/12 01:12:34;;;;;;;76.60;20.73;;;4.30;99.90;;;;;;4945525;28;20047;-66
2022/01/12 01:15:09;;;;;;;96.97;22.50;;;4.30;99.90;;;;;;4944076;28;20047;-70
2022/01/12 01:25:34;;;;;;;101.75;20.63;;;4.40;99.90;;;;;;4948715;28;20039;-68
2022/01/12 01:28:01;;;;;;;74.77;20.23;;;4.40;99.90;;;;;;4943845;28;20038;-67
2022/01/12 01:30:27;;;;;;;84.20;20.35;;;4.40;99.90;;;;;;4946432;28;20039;-66
2022/01/12 01:32:53;;;;;;;75.43;19.07;;;4.40;99.90;;;;;;4942556;28;20400;-66
2022/01/12 01:35:19;;;;;;;80.28;21.63;;;4.40;99.90;;;;;;4945611;28;20419;-68
2022/01/12 01:37:45;;;;;;;120.53;21.87;;;4.50;99.90;;;;;;4946553;28;20043;-68
2022/01/12 01:40:13;;;;;;;83.47;20.10;;;4.40;99.90;;;;;;4945970;28;20131;-66
2022/01/12 01:53:40;;;;;;;74.70;19.35;;;4.50;99.90;;;;;;4942636;28;20054;-67
2022/01/12 01:56:06;;;;;;;84.80;20.40;;;4.50;99.90;;;;;;4942833;28;20031;-67
2022/01/12 01:58:33;;;;;;;99.78;22.08;;;4.50;99.90;;;;;;4938653;28;20497;-67
2022/01/12 02:00:58;;;;;;;108.53;20.15;;;4.50;99.90;;;;;;4937943;28;20047;-67
2022/01/12 02:03:27;;;;;;;94.60;19.93;;;4.40;99.90;;;;;;4943397;28;20564;-67
2022/01/12 02:05:52;;;;;;;99.95;20.73;;;4.40;99.90;;;;;;4941999;28;20464;-67
2022/01/12 02:08:18;;;;;;;72.23;19.83;;;4.50;99.90;;;;;;4942293;28;20074;-67
2022/01/12 02:10:44;;;;;;;80.70;19.77;;;4.50;99.90;;;;;;4943727;28;20453;-67
2022/01/12 02:13:10;;;;;;;66.03;18.30;;;4.50;99.90;;;;;;4937993;28;20348;-66
2022/01/12 02:15:37;;;;;;;70.50;18.98;;;4.50;99.90;;;;;;4944449;28;20106;-67
2022/01/12 02:18:17;;;;;;;67.18;18.58;;;4.50;99.90;;;;;;4948915;28;20047;-67
2022/01/12 02:40:15;;;;;;;64.47;18.02;;;4.30;99.90;;;;;;4945252;28;20111;-66
2022/01/12 02:42:44;;;;;;;63.47;18.60;;;4.30;99.90;;;;;;4952093;28;20106;-66
2022/01/12 02:55:51;;;;;;;55.60;15.32;;;4.30;99.90;;;;;;4953027;28;20436;-66
2022/01/12 02:58:17;;;;;;;56.83;15.83;;;4.30;99.90;;;;;;4949049;29;20043;-66
2022/01/12 03:01:02;;;;;;;68.07;16.27;;;4.30;99.90;;;;;;4949686;29;20122;-66
2022/01/12 03:03:31;;;;;;;62.80;18.92;;;4.30;99.90;;;;;;4945377;29;20046;-66
2022/01/12 03:05:59;;;;;;;57.78;17.02;;;4.30;99.90;;;;;;4937288;28;20433;-67
2022/01/12 03:08:26;;;;;;;49.92;15.13;;;4.30;99.90;;;;;;4933764;28;20035;-66
2022/01/12 03:10:53;;;;;;;53.70;15.80;;;4.30;99.90;;;;;;4939078;28;20054;-67
2022/01/12 03:13:19;;;;;;;58.70;16.15;;;4.30;99.90;;;;;;4950642;28;20035;-66
2022/01/12 03:15:47;;;;;;;57.43;17.23;;;4.40;99.90;;;;;;4935322;29;20473;-67
2022/01/12 03:18:13;;;;;;;46.95;14.52;;;4.40;99.90;;;;;;4934242;28;20051;-67
2022/01/12 03:20:39;;;;;;;48.20;14.73;;;4.40;99.90;;;;;;4945552;28;20336;-66
2022/01/12 03:23:05;;;;;;;48.33;14.27;;;4.30;99.90;;;;;;4946433;28;20051;-66
2022/01/12 03:25:30;;;;;;;44.40;14.13;;;4.30;99.90;;;;;;4947162;28;20131;-68
2022/01/12 03:28:00;;;;;;;41.53;12.47;;;4.30;99.90;;;;;;4946954;28;20082;-66
2022/01/12 03:30:25;;;;;;;34.42;12.38;;;4.20;99.90;;;;;;4950953;28;20079;-66
2022/01/12 03:33:06;;;;;;;43.50;12.47;;;4.20;99.90;;;;;;4949416;28;20082;-67
2022/01/12 03:36:11;;;;;;;41.25;13.13;;;4.20;99.90;;;;;;4961459;28;20074;-67
2022/01/12 03:38:35;;;;;;;39.25;11.65;;;4.20;99.90;;;;;;4946221;28;20528;-66
2022/01/12 03:41:00;;;;;;;38.63;12.23;;;4.10;99.90;;;;;;4947313;28;20309;-66
2022/01/12 03:43:26;;;;;;;35.53;12.43;;;4.00;99.90;;;;;;4952600;28;20283;-66
2022/01/12 03:45:52;;;;;;;43.80;12.97;;;4.00;99.90;;;;;;4955179;28;20050;-67
2022/01/12 03:48:17;;;;;;;38.23;12.50;;;3.90;99.90;;;;;;4952701;28;20567;-66
2022/01/12 03:50:43;;;;;;;28.27;10.63;;;3.80;99.90;;;;;;4943467;28;20047;-68
2022/01/12 03:53:08;;;;;;;32.70;12.20;;;3.80;99.90;;;;;;4948123;28;20039;-67
2022/01/12 03:55:34;;;;;;;34.60;12.47;;;3.80;99.90;;;;;;4947628;28;20043;-67
2022/01/12 03:58:00;;;;;;;34.27;11.57;;;3.70;99.90;;;;;;4953317;28;20216;-67
2022/01/12 04:00:25;;;;;;;32.47;11.63;;;3.60;99.90;;;;;;4953983;28;20588;-68
2022/01/12 04:02:51;;;;;;;32.43;10.90;;;3.60;99.90;;;;;;4949076;29;20459;-68
2022/01/12 04:10:35;;;;;;;29.77;10.02;;;3.40;99.90;;;;;;4950601;28;20055;-68
2022/01/12 04:13:01;;;;;;;36.27;11.27;;;3.40;99.90;;;;;;4948437;28;20101;-68
2022/01/12 04:15:28;;;;;;;35.73;12.53;;;3.30;99.90;;;;;;4951346;28;20079;-69
2022/01/12 04:17:53;;;;;;;38.72;12.30;;;3.30;99.90;;;;;;4953855;28;20118;-67
2022/01/12 04:20:19;;;;;;;32.63;11.47;;;3.30;99.90;;;;;;4949271;28;20473;-68
2022/01/12 04:25:29;;;;;;;41.15;13.35;;;3.30;99.90;;;;;;4945177;28;20054;-67
2022/01/12 04:27:55;;;;;;;29.70;11.43;;;3.30;99.90;;;;;;4949045;28;20381;-68
2022/01/12 04:30:21;;;;;;;35.50;11.73;;;3.20;99.90;;;;;;4954316;28;20043;-68
2022/01/12 04:32:47;;;;;;;34.53;10.55;;;3.30;99.90;;;;;;4949861;28;20043;-67
2022/01/12 04:35:17;;;;;;;34.15;11.20;;;3.20;99.90;;;;;;4947014;28;20449;-68
2022/01/12 04:37:42;;;;;;;23.45;9.52;;;3.10;99.90;;;;;;4942438;28;20066;-68
2022/01/12 04:40:09;;;;;;;28.67;9.93;;;3.10;99.90;;;;;;4945110;28;20031;-68
2022/01/12 04:42:36;;;;;;;25.88;9.48;;;3.10;99.90;;;;;;4947319;28;20408;-68
2022/01/12 04:45:17;;;;;;;28.20;11.30;;;3.10;99.90;;;;;;4947559;28;20188;-68
2022/01/12 04:48:00;;;;;;;31.65;10.57;;;3.00;99.90;;;;;;4948445;28;20132;-68
2022/01/12 04:50:29;;;;;;;49.40;8.93;;;3.00;99.90;;;;;;4941165;28;20370;-68
2022/01/12 04:52:55;;;;;;;36.33;8.38;;;3.00;99.90;;;;;;4946497;28;20527;-68
2022/01/12 04:55:21;;;;;;;57.13;7.90;;;3.00;99.90;;;;;;4948166;28;20054;-68
2022/01/12 04:57:46;;;;;;;41.07;7.47;;;3.00;99.90;;;;;;4954674;28;20039;-68
2022/01/12 05:00:16;;;;;;;56.67;7.50;;;3.00;99.90;;;;;;4948884;28;20027;-68
2022/01/12 05:08:38;;;;;;;25.25;5.45;;;2.90;99.90;;;;;;4944663;29;20141;-67
2022/01/12 05:13:51;;;;;;;23.60;5.47;;;2.80;99.90;;;;;;4944071;28;20069;-67
2022/01/12 05:16:17;;;;;;;24.67;4.82;;;2.70;99.90;;;;;;4949903;28;20408;-67
2022/01/12 05:18:45;;;;;;;15.68;4.95;;;2.60;99.90;;;;;;4945463;28;20073;-66
2022/01/12 05:21:12;;;;;;;13.75;4.55;;;2.60;99.90;;;;;;4946806;29;20047;-66
2022/01/12 05:23:38;;;;;;;17.80;5.13;;;2.50;99.90;;;;;;4940169;28;20042;-67
2022/01/12 05:26:04;;;;;;;8.15;4.15;;;2.50;99.90;;;;;;4948213;28;20046;-66
2022/01/12 05:28:31;;;;;;;12.48;4.57;;;2.50;99.90;;;;;;4949846;28;20480;-67
2022/01/12 05:31:00;;;;;;;12.05;3.83;;;2.50;99.90;;;;;;4943347;28;20040;-66
2022/01/12 05:33:26;;;;;;;18.27;4.72;;;2.40;99.90;;;;;;4945089;28;20433;-67
2022/01/12 05:35:53;;;;;;;15.88;4.20;;;2.40;99.90;;;;;;4949642;28;20403;-67
2022/01/12 05:38:18;;;;;;;18.88;4.35;;;2.40;99.90;;;;;;4942524;28;20054;-67
2022/01/12 05:40:48;;;;;;;12.20;3.80;;;2.30;99.90;;;;;;4948288;28;20039;-67
2022/01/12 05:43:20;;;;;;;15.82;5.13;;;2.30;99.90;;;;;;4946560;29;20071;-66
2022/01/12 05:45:45;;;;;;;16.63;3.70;;;2.20;99.90;;;;;;4942793;29;20098;-67
2022/01/12 05:50:41;;;;;;;11.00;3.47;;;2.20;99.90;;;;;;4932744;28;20113;-67
2022/01/12 05:53:07;;;;;;;6.75;3.30;;;2.20;99.90;;;;;;4943068;28;20167;-66
2022/01/12 05:55:33;;;;;;;9.13;3.33;;;2.20;99.90;;;;;;4948666;28;20417;-66
2022/01/12 05:57:58;;;;;;;21.70;3.53;;;2.20;99.90;;;;;;4942695;28;20101;-66
2022/01/12 06:00:27;;;;;;;14.57;4.07;;;2.20;99.90;;;;;;4949491;28;20094;-66
2022/01/12 06:02:53;;;;;;;10.45;3.65;;;2.20;99.90;;;;;;4943658;28;20066;-66
2022/01/12 06:05:20;;;;;;;22.17;4.00;;;2.20;99.90;;;;;;4940715;28;20338;-66
2022/01/12 06:07:47;;;;;;;19.30;4.15;;;2.20;99.90;;;;;;4943714;28;20039;-67
2022/01/12 06:10:12;;;;;;;14.10;4.20;;;2.20;99.90;;;;;;4944736;28;20053;-67
2022/01/12 06:12:38;;;;;;;17.40;5.40;;;2.20;99.90;;;;;;4946474;28;20513;-66
2022/01/12 06:15:05;;;;;;;12.67;4.50;;;2.20;99.90;;;;;;4946252;28;20050;-68
2022/01/12 06:17:31;;;;;;;21.20;5.40;;;2.20;99.90;;;;;;4950443;28;20416;-67
2022/01/12 06:19:57;;;;;;;14.80;4.70;;;2.30;99.90;;;;;;4946994;29;20297;-67
2022/01/12 06:22:24;;;;;;;7.63;3.10;;;2.30;99.90;;;;;;4948812;28;20060;-67
2022/01/12 06:24:50;;;;;;;16.33;3.42;;;2.30;99.90;;;;;;4943273;28;20051;-66
2022/01/12 06:27:21;;;;;;;;;;;2.30;99.90;;;;;;4944389;28;20047;-66
2022/01/12 06:30:03;;;;;;;15.65;2.90;;;2.30;99.90;;;;;;4954622;28;20362;-67
2022/01/12 06:32:29;;;;;;;19.83;2.55;;;2.40;99.90;;;;;;4945664;28;20457;-67
2022/01/12 06:34:55;;;;;;;20.08;3.72;;;2.40;99.90;;;;;;4946331;28;20039;-67
2022/01/12 06:37:21;;;;;;;13.67;3.87;;;2.40;99.90;;;;;;4945596;28;20126;-67
2022/01/12 06:39:46;;;;;;;19.23;3.60;;;2.40;99.90;;;;;;4945885;28;20054;-66
2022/01/12 06:42:12;;;;;;;13.30;3.43;;;2.40;99.90;;;;;;4936242;28;20047;-66
2022/01/12 06:44:38;;;;;;;9.70;2.97;;;2.40;99.90;;;;;;4940286;28;20106;-66
2022/01/12 06:47:04;;;;;;;11.93;3.20;;;2.40;99.90;;;;;;4942443;28;20051;-68
2022/01/12 06:49:31;;;;;;;12.40;2.75;;;2.30;99.90;;;;;;4948659;28;20452;-69
2022/01/12 06:51:59;;;;;;;;;;;2.30;99.90;;;;;;4946068;28;20410;-69
2022/01/12 06:54:25;;;;;;;8.50;2.80;;;2.30;99.90;;;;;;4965366;23;19968;-69
2022/01/12 06:56:50;;;;;;;23.73;3.53;;;2.30;99.90;;;;;;4959388;28;20070;-69
2022/01/12 06:59:16;;;;;;;19.17;3.30;;;2.20;99.90;;;;;;4951810;28;20048;-69
2022/01/12 07:01:41;;;;;;;34.83;3.60;;;2.20;99.90;;;;;;4952370;28;20105;-69
2022/01/12 07:04:07;;;;;;;23.63;3.63;;;2.20;99.90;;;;;;4950169;28;20518;-70
2022/01/12 07:06:34;;;;;;;16.93;2.60;;;2.20;99.90;;;;;;4950069;28;20910;-68
2022/01/12 07:09:00;;;;;;;18.38;3.15;;;2.30;99.90;;;;;;4952879;28;20126;-68
2022/01/12 07:11:26;;;;;;;18.40;2.95;;;2.20;99.90;;;;;;4951331;28;20854;-69
2022/01/12 07:13:51;;;;;;;25.43;3.40;;;2.20;99.90;;;;;;4951327;28;20039;-68
2022/01/12 07:16:19;;;;;;;22.97;4.13;;;2.20;99.90;;;;;;4957831;28;20043;-69
2022/01/12 07:18:45;;;;;;;15.95;3.63;;;2.30;99.90;;;;;;4947517;28;20042;-69
2022/01/12 07:21:11;;;;;;;8.03;3.00;;;2.20;99.90;;;;;;4955295;28;20047;-70
2022/01/12 07:23:36;;;;;;;24.93;3.40;;;2.30;99.90;;;;;;4932165;28;20047;-68
2022/01/12 07:26:02;;;;;;;22.93;2.47;;;2.20;99.90;;;;;;4955019;28;20388;-70
2022/01/12 07:28:27;;;;;;;10.83;2.63;;;2.20;99.90;;;;;;4932331;29;20043;-70
2022/01/12 07:30:53;;;;;;;19.57;3.37;;;2.30;99.90;;;;;;4950547;28;20047;-70
2022/01/12 07:33:20;;;;;;;23.33;3.07;;;2.20;99.90;;;;;;4955148;28;20070;-69
2022/01/12 07:35:48;;;;;;;11.68;2.22;;;2.20;99.90;;;;;;4952600;28;20051;-70
2022/01/12 07:38:14;;;;;;;20.88;3.10;;;2.20;99.90;;;;;;4948279;28;20039;-69
2022/01/12 07:40:40;;;;;;;37.70;3.63;;;2.20;99.90;;;;;;4953082;28;20066;-68
2022/01/12 07:43:06;;;;;;;33.53;3.87;;;2.20;99.90;;;;;;4957432;28;20039;-75
2022/01/12 07:45:33;;;;;;;29.60;3.10;;;2.20;99.90;;;;;;4935021;28;20074;-73
2022/01/12 07:47:59;;;;;;;15.32;3.38;;;2.30;99.90;;;;;;4956557;28;20081;-75
2022/01/12 07:50:25;;;;;;;16.07;3.10;;;2.20;99.90;;;;;;4952927;28;20043;-69
2022/01/12 07:52:53;;;;;;;23.02;4.93;;;2.30;99.90;;;;;;4950706;28;20035;-69
2022/01/12 07:55:20;;;;;;;26.67;3.40;;;2.40;99.90;;;;;;4952162;28;20650;-70
2022/01/12 07:57:47;;;;;;;26.00;3.55;;;2.30;99.90;;;;;;4950600;28;20050;-68
2022/01/12 08:00:13;;;;;;;16.70;3.10;;;2.40;99.90;;;;;;4944299;28;20117;-70
2022/01/12 08:02:39;;;;;;;15.63;3.40;;;2.30;99.90;;;;;;4952871;28;20043;-69
2022/01/12 08:05:05;;;;;;;22.83;3.43;;;2.40;99.90;;;;;;4955187;28;20256;-69
2022/01/12 08:07:35;;;;;;;34.35;4.20;;;2.30;99.90;;;;;;4957701;28;20061;-69
2022/01/12 08:10:02;;;;;;;19.38;3.38;;;2.30;99.90;;;;;;4955547;28;20559;-68
2022/01/12 08:12:28;;;;;;;14.77;3.17;;;2.40;99.90;;;;;;4958493;28;20127;-69
2022/01/12 08:14:53;;;;;;;16.27;3.83;;;2.40;99.90;;;;;;4953185;28;20031;-69
2022/01/12 08:17:19;;;;;;;18.13;5.00;;;2.40;99.90;;;;;;4953386;28;20082;-69
2022/01/12 08:19:44;;;;;;;21.23;4.73;;;2.40;99.90;;;;;;4960174;28;20042;-69
2022/01/12 08:22:10;;;;;;;10.20;4.00;;;2.40;99.90;;;;;;4956509;28;20031;-69
2022/01/12 08:24:35;;;;;;;29.83;4.63;;;2.50;99.90;;;;;;4943666;28;20051;-68
2022/01/12 08:27:01;;;;;;;15.23;4.63;;;2.60;99.90;;;;;;4952114;28;20514;-69
2022/01/12 08:29:29;;;;;;;19.03;4.43;;;2.60;99.90;;;;;;4955011;28;20123;-69
2022/01/12 08:31:55;;;;;;;23.45;3.78;;;2.60;99.90;;;;;;4958542;28;20043;-68
2022/01/12 08:34:21;;;;;;;22.20;3.85;;;2.60;99.90;;;;;;4956237;28;20050;-68
2022/01/12 08:36:47;;;;;;;20.42;3.60;;;2.60;99.90;;;;;;4952817;28;20158;-69
2022/01/12 08:39:12;;;;;;;13.10;3.67;;;2.60;99.90;;;;;;4952384;28;20057;-70
2022/01/12 08:41:38;;;;;;;14.17;3.77;;;2.60;99.90;;;;;;4957074;28;20043;-68
2022/01/12 08:44:06;;;;;;;20.85;3.92;;;2.60;99.90;;;;;;4956069;28;20397;-70
2022/01/12 08:46:32;;;;;;;15.60;3.13;;;2.60;99.90;;;;;;4959765;28;20042;-70
2022/01/12 08:48:57;;;;;;;14.73;2.75;;;2.60;99.90;;;;;;4953772;28;20049;-69
2022/01/12 08:51:23;;;;;;;17.23;2.47;;;2.70;99.90;;;;;;4959843;28;20133;-69
2022/01/12 08:53:49;;;;;;;28.93;3.73;;;2.70;99.90;;;;;;4966380;28;20120;-69
2022/01/12 08:56:14;;;;;;;17.57;2.60;;;2.80;99.90;;;;;;4965584;28;20125;-70
2022/01/12 08:58:41;;;;;;;16.07;2.27;;;2.80;99.90;;;;;;4962516;28;20035;-69
2022/01/12 09:01:09;;;;;;;22.35;2.75;;;2.80;99.90;;;;;;4949232;28;20055;-69
2022/01/12 09:03:36;;;;;;;21.80;2.70;;;2.90;99.90;;;;;;4953694;28;20270;-69
2022/01/12 09:06:03;;;;;;;15.73;2.90;;;2.90;99.90;;;;;;4959532;28;20061;-69
2022/01/12 09:08:29;;;;;;;23.42;3.17;;;2.90;99.90;;;;;;4956106;28;20034;-69
2022/01/12 09:10:55;;;;;;;15.13;3.38;;;3.00;99.90;;;;;;4958139;28;20047;-69
2022/01/12 09:13:21;;;;;;;26.90;3.13;;;3.00;99.90;;;;;;4956169;28;20505;-68
2022/01/12 09:15:47;;;;;;;16.43;2.90;;;3.10;99.90;;;;;;4942846;28;20047;-69
2022/01/12 09:18:12;;;;;;;16.03;2.47;;;3.10;99.90;;;;;;4958772;28;20042;-69
2022/01/12 09:20:38;;;;;;;22.17;3.57;;;3.10;99.90;;;;;;4961428;28;20058;-69
2022/01/12 09:23:04;;;;;;;21.77;2.70;;;3.20;99.90;;;;;;4952743;28;20507;-68
2022/01/12 09:25:33;;;;;;;17.63;3.20;;;3.20;99.90;;;;;;4954942;28;20129;-69
2022/01/12 09:28:02;;;;;;;19.70;3.03;;;3.30;99.90;;;;;;4955047;28;20086;-69
2022/01/12 09:30:28;;;;;;;9.80;2.80;;;3.30;99.90;;;;;;4953553;28;20161;-68
2022/01/12 09:32:53;;;;;;;24.80;3.28;;;3.40;99.90;;;;;;4958069;28;20555;-68
2022/01/12 09:35:19;;;;;;;16.57;2.80;;;3.40;99.90;;;;;;4955377;28;20198;-69
2022/01/12 09:37:45;;;;;;;8.53;2.23;;;3.40;99.90;;;;;;4956252;28;20035;-70
2022/01/12 09:40:11;;;;;;;13.23;2.37;;;3.40;99.90;;;;;;4978662;28;20416;-70
2022/01/12 09:42:37;;;;;;;14.07;2.65;;;3.50;99.90;;;;;;4964631;28;20054;-69
2022/01/12 09:45:03;;;;;;;22.10;3.70;;;3.50;99.90;;;;;;4958460;28;20035;-69
2022/01/12 09:47:29;;;;;;;17.58;2.20;;;3.60;99.90;;;;;;4954456;28;20051;-69
2022/01/12 09:49:55;;;;;;;21.33;2.77;;;3.60;99.90;;;;;;4951049;28;20101;-69
2022/01/12 09:52:21;;;;;;;16.23;2.63;;;3.60;99.90;;;;;;4954347;28;20417;-68
2022/01/12 09:54:46;;;;;;;22.60;3.30;;;3.70;99.90;;;;;;4946405;28;20575;-70
2022/01/12 09:57:13;;;;;;;12.77;2.73;;;3.70;99.90;;;;;;4954955;28;20078;-69
2022/01/12 09:59:39;;;;;;;;;;;3.60;99.90;;;;;;4956933;28;20050;-69
2022/01/12 10:02:14;;;;;;;21.63;2.65;;;3.70;99.90;;;;;;4957053;28;19926;-70
2022/01/12 10:04:40;;;;;;;20.20;3.15;;;3.70;99.90;;;;;;4953788;28;20140;-68
2022/01/12 10:07:05;;;;;;;31.90;3.87;;;3.80;99.90;;;;;;4956148;28;20071;-69
2022/01/12 10:09:37;;;;;;;24.63;3.53;;;3.90;99.90;;;;;;4961012;28;20043;-70
2022/01/12 10:12:05;;;;;;;36.25;3.53;;;3.90;99.90;;;;;;4950881;28;20047;-68
2022/01/12 10:14:59;;;;;;;26.95;3.65;;;4.00;99.90;;;;;;4957183;28;20860;-70
2022/01/12 10:17:42;;;;;;;28.48;3.70;;;4.00;99.90;;;;;;4956810;28;20391;-69
2022/01/12 10:20:23;;;;;;;31.27;3.28;;;4.00;99.90;;;;;;4942952;28;20226;-69
2022/01/12 10:23:00;;;;;;;31.08;3.97;;;4.10;99.90;;;;;;4952116;28;20420;-69
2022/01/12 10:25:28;;;;;;;33.90;3.95;;;4.10;99.90;;;;;;4944529;28;20051;-68
2022/01/12 10:27:54;;;;;;;26.40;4.28;;;4.10;99.90;;;;;;4954323;28;20051;-69
2022/01/12 10:30:29;;;;;;;31.40;4.55;;;4.20;99.90;;;;;;4955663;28;20415;-69
2022/01/12 10:32:58;;;;;;;23.13;4.20;;;4.20;99.90;;;;;;4959079;28;20250;-70
2022/01/12 10:35:28;;;;;;;23.88;3.78;;;4.30;99.90;;;;;;4949062;28;20045;-70
2022/01/12 10:38:14;;;;;;;18.35;3.88;;;4.30;99.90;;;;;;4953719;28;20058;-69
2022/01/12 10:40:47;;;;;;;38.70;3.83;;;4.30;99.90;;;;;;4930191;28;20061;-70
2022/01/12 10:43:24;;;;;;;27.77;3.95;;;4.40;99.90;;;;;;4953288;28;20403;-69
2022/01/12 10:45:50;;;;;;;15.23;3.38;;;4.50;99.90;;;;;;4961117;28;20070;-69
2022/01/12 10:48:15;;;;;;;17.83;3.60;;;4.50;99.90;;;;;;4953354;28;20241;-69
2022/01/12 10:50:51;;;;;;;25.27;4.27;;;4.60;99.90;;;;;;4960142;28;20056;-69
2022/01/12 10:53:34;;;;;;;15.70;3.67;;;4.60;99.90;;;;;;4952022;28;20483;-70
2022/01/12 10:56:09;;;;;;;22.92;4.15;;;4.60;99.90;;;;;;4959918;28;20043;-68
2022/01/12 10:58:38;;;;;;;15.02;3.92;;;4.60;99.90;;;;;;4946913;28;20078;-69
2022/01/12 11:01:04;;;;;;;15.35;3.70;;;4.80;99.90;;;;;;4950280;28;20039;-70
2022/01/12 11:03:30;;;;;;;13.33;3.43;;;4.80;99.90;;;;;;4959784;28;20041;-70
2022/01/12 11:05:57;;;;;;;10.68;2.97;;;4.80;99.90;;;;;;4961888;28;20034;-70
2022/01/12 11:08:26;;;;;;;17.40;3.20;;;4.90;99.90;;;;;;4951928;28;20144;-70
2022/01/12 11:10:56;;;;;;;13.05;3.13;;;5.00;99.90;;;;;;4949345;28;20067;-70
2022/01/12 11:13:23;;;;;;;12.20;3.50;;;5.00;99.90;;;;;;4951317;28;20041;-70
2022/01/12 11:15:49;;;;;;;13.45;3.75;;;5.00;99.90;;;;;;4951703;28;20035;-70
2022/01/12 11:18:19;;;;;;;8.25;3.42;;;5.10;99.90;;;;;;4945585;28;20038;-70
2022/01/12 11:20:47;;;;;;;11.10;3.13;;;5.10;99.90;;;;;;4973563;28;20055;-70
2022/01/12 11:23:18;;;;;;;10.63;3.72;;;5.10;99.90;;;;;;4951491;28;22250;-70
2022/01/12 11:25:49;;;;;;;17.83;3.78;;;5.10;99.90;;;;;;4953439;28;20292;-68
2022/01/12 11:28:22;;;;;;;16.63;3.70;;;5.10;99.90;;;;;;4960102;28;20035;-70
2022/01/12 11:30:51;;;;;;;12.98;3.35;;;5.10;99.90;;;;;;4957188;28;20039;-70
2022/01/12 11:33:18;;;;;;;16.85;3.97;;;5.20;99.90;;;;;;4962364;28;20050;-68
2022/01/12 11:35:52;;;;;;;10.50;3.72;;;5.20;99.90;;;;;;4957425;28;20051;-69
2022/01/12 11:38:22;;;;;;;12.73;3.72;;;5.20;99.90;;;;;;4960219;28;20045;-69
2022/01/12 11:40:50;;;;;;;10.30;3.50;;;5.20;99.90;;;;;;4957984;28;20069;-70
2022/01/12 11:43:46;;;;;;;8.95;3.35;;;5.20;99.90;;;;;;4968664;28;20049;-70
2022/01/12 11:46:13;;;;;;;8.88;2.78;;;5.30;99.90;;;;;;4957557;28;20085;-70
2022/01/12 11:48:44;;;;;;;16.13;3.40;;;5.30;99.90;;;;;;4959708;28;20051;-70
2022/01/12 11:51:11;;;;;;;14.60;4.03;;;5.30;99.90;;;;;;4961784;28;20046;-69
2022/01/12 11:53:47;;;;;;;9.95;3.33;;;5.30;99.90;;;;;;4958132;28;20496;-70
2022/01/12 11:56:19;;;;;;;8.90;3.37;;;5.30;99.90;;;;;;4962093;28;20163;-69
2022/01/12 11:59:05;;;;;;;13.80;3.97;;;5.30;99.90;;;;;;4958876;28;20047;-70
2022/01/12 12:01:48;;;;;;;11.70;3.75;;;5.40;99.90;;;;;;4963011;28;20627;-70
2022/01/12 12:04:25;;;;;;;9.20;3.38;;;5.40;99.90;;;;;;4957177;28;20074;-69
2022/01/12 12:07:10;;;;;;;9.70;3.88;;;5.50;99.90;;;;;;4961750;28;20043;-70
2022/01/12 12:09:52;;;;;;;13.52;3.45;;;5.50;99.90;;;;;;4956209;28;20523;-69
2022/01/12 12:12:26;;;;;;;14.65;4.20;;;5.50;99.90;;;;;;4954879;28;20102;-68
2022/01/12 12:14:55;;;;;;;14.45;4.55;;;5.50;99.90;;;;;;4965181;28;20130;-70
2022/01/12 12:17:22;;;;;;;15.00;4.60;;;5.60;99.90;;;;;;4948779;28;20039;-69
2022/01/12 12:19:49;;;;;;;13.88;4.30;;;5.60;99.90;;;;;;4953406;28;20054;-69
2022/01/12 12:22:18;;;;;;;19.63;4.93;;;5.60;99.90;;;;;;4954148;28;20039;-70
2022/01/12 12:24:52;;;;;;;15.75;4.78;;;5.60;99.90;;;;;;4940980;28;20045;-70
2022/01/12 12:27:19;;;;;;;16.08;5.10;;;5.70;99.90;;;;;;4959315;28;20043;-69
2022/01/12 12:29:48;;;;;;;11.07;4.88;;;5.70;99.90;;;;;;4954099;28;20043;-70
2022/01/12 12:32:15;;;;;;;12.15;4.35;;;5.70;99.90;;;;;;4949182;28;20219;-70
2022/01/12 12:34:42;;;;;;;15.52;5.13;;;5.80;99.90;;;;;;4961996;28;20113;-70
2022/01/12 12:37:11;;;;;;;17.35;5.13;;;5.80;99.90;;;;;;4951461;28;20528;-69
2022/01/12 12:39:42;;;;;;;16.95;4.97;;;5.90;99.90;;;;;;4953304;28;20054;-70
2022/01/12 12:42:19;;;;;;;18.38;5.47;;;5.90;99.90;;;;;;4952263;28;20233;-69
2022/01/12 12:44:47;;;;;;;19.77;5.35;;;6.00;99.90;;;;;;4953389;28;20094;-69
2022/01/12 12:47:16;;;;;;;23.02;6.10;;;6.00;99.90;;;;;;4956524;28;20054;-69
2022/01/12 12:49:54;;;;;;;14.60;5.15;;;6.00;99.90;;;;;;4959600;28;20047;-70
2022/01/12 12:52:23;;;;;;;15.43;6.68;;;6.00;99.90;;;;;;4957564;28;20273;-70
2022/01/12 12:54:48;;;;;;;14.55;5.88;;;6.00;99.90;;;;;;5029712;23;20047;-69
2022/01/12 12:57:20;;;;;;;17.73;5.60;;;6.10;99.90;;;;;;4964630;28;20505;-70
2022/01/12 13:00:04;;;;;;;20.83;6.28;;;6.10;99.90;;;;;;4937261;28;20134;-70
2022/01/12 13:02:37;;;;;;;25.33;6.90;;;6.10;99.90;;;;;;4924139;28;20055;-70
2022/01/12 13:05:05;;;;;;;23.38;7.13;;;6.10;99.90;;;;;;4927371;28;20035;-70
2022/01/12 13:07:39;;;;;;;26.67;7.50;;;6.10;99.90;;;;;;4925663;28;20809;-70
2022/01/12 13:10:13;;;;;;;21.27;7.45;;;6.10;99.90;;;;;;4930095;28;20039;-70
2022/01/12 13:12:40;;;;;;;23.55;7.90;;;6.10;99.90;;;;;;4939887;28;20105;-70
2022/01/12 13:15:08;;;;;;;21.70;7.53;;;6.10;99.90;;;;;;4928523;28;20075;-71
2022/01/12 13:17:34;;;;;;;20.45;6.57;;;6.20;99.90;;;;;;4913273;28;20047;-69
2022/01/12 13:22:36;;;;;;;19.73;6.20;;;6.20;99.90;;;;;;4926196;28;20042;-69
2022/01/12 13:25:07;;;;;;;16.10;5.85;;;6.20;99.90;;;;;;4922592;28;20101;-69
2022/01/12 13:27:34;;;;;;;18.60;5.82;;;6.10;99.90;;;;;;4922008;28;20051;-69
2022/01/12 13:30:00;;;;;;;17.50;6.72;;;6.10;99.90;;;;;;4941915;28;20512;-69
2022/01/12 13:32:26;;;;;;;21.50;7.33;;;6.10;99.90;;;;;;4924571;28;20044;-70
2022/01/12 13:35:08;;;;;;;18.40;6.28;;;6.10;99.90;;;;;;4925757;28;20448;-69
2022/01/12 13:37:34;;;;;;;18.83;6.80;;;6.10;99.90;;;;;;4929243;28;20050;-70
2022/01/12 13:40:09;;;;;;;17.95;7.15;;;6.10;99.90;;;;;;4926549;28;20563;-68
2022/01/12 13:42:56;;;;;;;16.73;5.65;;;6.10;99.90;;;;;;4923861;28;20044;-71
2022/01/12 13:45:38;;;;;;;17.67;5.87;;;6.10;99.90;;;;;;4923060;28;20661;-71
2022/01/12 13:48:12;;;;;;;18.02;4.95;;;6.00;99.90;;;;;;4923675;28;20480;-70
2022/01/12 13:50:40;;;;;;;15.88;5.53;;;6.00;99.90;;;;;;4923405;28;20567;-70
2022/01/12 13:53:06;;;;;;;18.40;5.28;;;6.00;99.90;;;;;;4940782;28;20583;-70
2022/01/12 13:55:34;;;;;;;19.75;6.93;;;6.00;99.90;;;;;;4941618;28;20051;-67
2022/01/12 13:58:06;;;;;;;19.48;4.72;;;6.00;99.90;;;;;;4938129;28;20050;-70
2022/01/12 14:00:34;;;;;;;18.80;5.75;;;6.00;99.90;;;;;;4943845;28;20043;-70
2022/01/12 14:03:00;;;;;;;12.52;4.63;;;5.90;99.90;;;;;;4934721;28;20051;-69
2022/01/12 14:05:37;;;;;;;14.52;5.47;;;5.90;99.90;;;;;;4941039;28;20043;-69
2022/01/12 14:08:05;;;;;;;14.77;5.37;;;5.90;99.90;;;;;;4936581;28;20081;-70
2022/01/12 14:10:31;;;;;;;16.50;4.80;;;5.90;99.90;;;;;;4939776;28;20062;-70